KVSF/VSF METAR and TAF weather

Enter ICAO airport designator
Station Type Date Time Source
KVSF METAR 2019/06/18 14:54 UTC NOAA

KVSF 181454Z AUTO 00000KT 10SM CLR 19/11 A2999 RMK AO2 SLP156 T01890111


Station Type Date Time Source
KVSF Decoded METAR 2019/06/18 14:54 UTC NOAA

HARTNESS STATE AIRPORT, VT, United States (KVSF) 43-21N 72-31W 175M
Jun 18, 2019 - 10:54 AM EDT / 2019.06.18 1454 UTC
Wind: Calm:0
Visibility: 10 mile(s):0
Sky conditions: clear
Temperature: 66.0 F (18.9 C)
Dew Point: 52.0 F (11.1 C)
Relative Humidity: 60%
Pressure (altimeter): 29.99 in. Hg (1015 hPa)
Pressure tendency: 0.02 inches (0.6 hPa) lower than three hours ago
ob: KVSF 181454Z AUTO 00000KT 10SM CLR 19/11 A2999 RMK AO2 SLP156 T01890111 58006
cycle: 15

Station Type Date Time Source
KVSF TAF UTC NOAA

Error!

Example: see airport list